createdAt,value
2018-07-05T00:00:25.582Z,17.30
2018-07-05T00:01:25.571Z,17.24
2018-07-05T00:02:25.560Z,17.32
2018-07-05T00:03:25.550Z,17.35
2018-07-05T00:04:25.539Z,17.38
2018-07-05T00:05:25.529Z,17.33
2018-07-05T00:06:25.519Z,17.42
2018-07-05T00:07:25.509Z,17.42
2018-07-05T00:08:25.498Z,17.47
2018-07-05T00:09:25.518Z,17.53
2018-07-05T00:10:25.479Z,17.53
2018-07-05T00:11:25.470Z,17.47
2018-07-05T00:12:25.457Z,17.58
2018-07-05T00:13:25.547Z,17.65
2018-07-05T00:14:25.441Z,17.65
2018-07-05T00:15:25.426Z,17.55
2018-07-05T00:16:25.416Z,17.63
2018-07-05T00:17:25.447Z,17.57
2018-07-05T00:18:25.396Z,17.51
2018-07-05T00:19:25.386Z,17.47
2018-07-05T00:20:25.376Z,17.57
2018-07-05T00:21:25.365Z,17.49
2018-07-05T00:22:25.359Z,17.58
2018-07-05T00:23:25.346Z,17.55
2018-07-05T00:24:25.334Z,17.57
2018-07-05T00:25:25.325Z,17.55
2018-07-05T00:26:25.315Z,17.54
2018-07-05T00:27:25.309Z,17.62
2018-07-05T00:28:25.296Z,17.53
2018-07-05T00:29:25.285Z,17.55
2018-07-05T00:30:25.275Z,17.65
2018-07-05T00:31:25.265Z,17.60
2018-07-05T00:32:25.254Z,17.54
2018-07-05T00:33:25.244Z,17.60
2018-07-05T00:34:25.234Z,17.66
2018-07-05T00:35:25.224Z,17.63
2018-07-05T00:36:25.214Z,17.58
2018-07-05T00:37:25.202Z,17.40
2018-07-05T00:38:25.193Z,17.33
2018-07-05T00:39:25.183Z,17.42
2018-07-05T00:40:25.172Z,17.33
2018-07-05T00:41:25.163Z,17.32
2018-07-05T00:42:25.152Z,17.36
2018-07-05T00:43:25.142Z,17.35
2018-07-05T00:44:25.131Z,17.32
2018-07-05T00:45:25.121Z,17.28
2018-07-05T00:46:25.111Z,17.35
2018-07-05T00:47:25.103Z,17.28
2018-07-05T00:48:25.089Z,17.33
2018-07-05T00:49:25.080Z,17.36
2018-07-05T00:50:25.071Z,17.33
2018-07-05T00:51:25.062Z,17.30
2018-07-05T00:52:25.054Z,17.39
2018-07-05T00:53:25.038Z,17.38
2018-07-05T00:54:25.031Z,17.25
2018-07-05T00:55:25.018Z,17.38
2018-07-05T00:56:25.007Z,17.32
2018-07-05T00:57:24.997Z,17.38
2018-07-05T00:58:24.986Z,17.33
2018-07-05T00:59:24.976Z,17.30
2018-07-05T01:00:24.967Z,17.32
2018-07-05T01:01:24.956Z,17.38
2018-07-05T01:02:24.946Z,17.35
2018-07-05T01:03:24.935Z,17.32
2018-07-05T01:04:24.924Z,17.24
2018-07-05T01:05:24.914Z,17.33
2018-07-05T01:06:24.903Z,17.36
2018-07-05T01:07:24.893Z,17.35
2018-07-05T01:08:24.882Z,17.38
2018-07-05T01:09:24.873Z,17.33
2018-07-05T01:10:24.862Z,17.30
2018-07-05T01:11:24.852Z,17.24
2018-07-05T01:12:24.840Z,17.40
2018-07-05T01:13:24.830Z,17.43
2018-07-05T01:14:24.824Z,17.40
2018-07-05T01:15:24.811Z,17.43
2018-07-05T01:16:24.802Z,17.47
2018-07-05T01:17:24.789Z,17.53
2018-07-05T01:18:24.779Z,17.54
2018-07-05T01:19:24.775Z,17.54
2018-07-05T01:20:24.758Z,17.45
2018-07-05T01:21:24.752Z,17.40
2018-07-05T01:22:24.738Z,17.42
2018-07-05T01:23:24.728Z,17.35
2018-07-05T01:24:24.725Z,17.45
2018-07-05T01:25:24.706Z,17.46
2018-07-05T01:26:24.697Z,17.42
2018-07-05T01:27:24.686Z,17.47
2018-07-05T01:28:24.679Z,17.49
2018-07-05T01:29:24.666Z,17.53
2018-07-05T01:30:24.656Z,17.47
2018-07-05T01:31:24.647Z,17.57
2018-07-05T01:32:24.634Z,17.57
2018-07-05T01:33:24.624Z,17.55
2018-07-05T01:34:24.615Z,17.55
2018-07-05T01:35:24.604Z,17.63
2018-07-05T01:36:24.594Z,17.57
2018-07-05T01:37:24.584Z,17.51
2018-07-05T01:38:24.573Z,17.51
2018-07-05T01:39:24.564Z,17.47
2018-07-05T01:40:24.553Z,17.49
2018-07-05T01:41:24.543Z,17.43
2018-07-05T01:42:24.536Z,17.36
2018-07-05T01:43:24.623Z,17.38
2018-07-05T01:44:24.512Z,17.32
2018-07-05T01:45:24.501Z,17.18
2018-07-05T01:46:24.493Z,17.21
2018-07-05T01:47:24.481Z,17.18
2018-07-05T01:48:24.470Z,17.22
2018-07-05T01:49:24.462Z,17.22
2018-07-05T01:50:24.456Z,17.21
2018-07-05T01:51:24.441Z,17.22
2018-07-05T01:52:24.428Z,17.21
2018-07-05T01:53:24.418Z,17.21
2018-07-05T01:54:24.410Z,17.18
2018-07-05T01:55:24.398Z,17.28
2018-07-05T01:56:24.387Z,17.20
2018-07-05T01:57:24.378Z,17.21
2018-07-05T01:58:24.366Z,17.20
2018-07-05T01:59:24.356Z,17.17
2018-07-05T02:00:24.347Z,17.20
2018-07-05T02:01:24.335Z,17.17
2018-07-05T02:02:24.325Z,17.21
2018-07-05T02:03:24.315Z,17.18
2018-07-05T02:04:24.303Z,17.14
2018-07-05T02:05:24.293Z,17.22
2018-07-05T02:06:24.288Z,17.18
2018-07-05T02:07:24.273Z,17.20
2018-07-05T02:08:24.262Z,17.22
2018-07-05T02:09:24.251Z,17.15
2018-07-05T02:10:24.241Z,17.10
2018-07-05T02:11:24.232Z,17.02
2018-07-05T02:12:24.222Z,17.14
2018-07-05T02:13:24.210Z,17.12
2018-07-05T02:14:24.222Z,17.18
2018-07-05T02:15:24.189Z,17.22
2018-07-05T02:16:24.179Z,17.30
2018-07-05T02:17:24.168Z,17.17
2018-07-05T02:18:24.158Z,17.15
2018-07-05T02:19:24.147Z,17.14
2018-07-05T02:20:24.136Z,17.09
2018-07-05T02:21:24.126Z,17.03
2018-07-05T02:22:24.116Z,17.12
2018-07-05T02:23:24.108Z,17.10
2018-07-05T02:24:24.095Z,17.17
2018-07-05T02:25:24.085Z,17.20
2018-07-05T02:26:24.074Z,17.24
2018-07-05T02:27:24.064Z,17.30
2018-07-05T02:28:24.053Z,17.28
2018-07-05T02:29:24.046Z,17.22
2018-07-05T02:30:24.033Z,17.21
2018-07-05T02:31:24.022Z,17.15
2018-07-05T02:32:24.011Z,17.14
2018-07-05T02:33:24.011Z,17.22
2018-07-05T02:34:23.991Z,17.20
2018-07-05T02:35:23.980Z,17.18
2018-07-05T02:36:23.972Z,17.14
2018-07-05T02:37:23.961Z,17.21
2018-07-05T02:38:23.948Z,17.18
2018-07-05T02:39:23.938Z,17.22
2018-07-05T02:40:23.928Z,17.12
2018-07-05T02:41:23.917Z,17.21
2018-07-05T02:42:23.907Z,17.14
2018-07-05T02:43:23.897Z,17.17
2018-07-05T02:44:23.886Z,17.14
2018-07-05T02:45:23.876Z,17.22
2018-07-05T02:46:23.867Z,17.18
2018-07-05T02:47:23.857Z,17.21
2018-07-05T02:48:23.844Z,17.27
2018-07-05T02:49:23.833Z,17.28
2018-07-05T02:50:23.825Z,17.17
2018-07-05T02:51:23.813Z,17.32
2018-07-05T02:52:23.801Z,17.22
2018-07-05T02:53:23.792Z,17.17
2018-07-05T02:54:23.782Z,17.09
2018-07-05T02:55:23.772Z,17.03
2018-07-05T02:56:23.760Z,17.17
2018-07-05T02:57:23.750Z,17.15
2018-07-05T02:58:23.740Z,17.17
2018-07-05T02:59:23.730Z,17.22
2018-07-05T03:00:23.723Z,17.15
2018-07-05T03:01:23.715Z,17.27
2018-07-05T03:02:23.702Z,17.17
2018-07-05T03:03:23.687Z,17.12
2018-07-05T03:04:23.677Z,17.20
2018-07-05T03:05:23.666Z,17.20
2018-07-05T03:06:23.656Z,17.20
2018-07-05T03:07:23.646Z,17.14
2018-07-05T03:08:23.637Z,17.09
2018-07-05T03:09:23.631Z,17.14
2018-07-05T03:10:23.615Z,16.99
2018-07-05T03:11:23.606Z,17.07
2018-07-05T03:12:23.594Z,17.15
2018-07-05T03:13:23.683Z,17.10
2018-07-05T03:14:23.574Z,17.17
2018-07-05T03:15:23.564Z,17.15
2018-07-05T03:16:23.555Z,17.14
2018-07-05T03:17:23.541Z,17.14
2018-07-05T03:18:23.531Z,17.14
2018-07-05T03:19:23.520Z,17.18
2018-07-05T03:20:23.509Z,17.12
2018-07-05T03:21:23.499Z,17.18
2018-07-05T03:22:23.489Z,17.12
2018-07-05T03:23:23.479Z,17.00
2018-07-05T03:24:23.469Z,17.02
2018-07-05T03:25:23.457Z,17.15
2018-07-05T03:26:23.447Z,17.02
2018-07-05T03:27:23.437Z,17.14
2018-07-05T03:28:23.425Z,17.15
2018-07-05T03:29:23.415Z,17.17
2018-07-05T03:30:23.409Z,17.07
2018-07-05T03:31:23.395Z,17.00
2018-07-05T03:32:23.384Z,16.98
2018-07-05T03:33:23.373Z,17.03
2018-07-05T03:34:23.363Z,17.05
2018-07-05T03:35:23.352Z,17.07
2018-07-05T03:36:23.342Z,17.10
2018-07-05T03:37:23.331Z,17.12
2018-07-05T03:38:23.320Z,17.09
2018-07-05T03:39:23.313Z,17.06
2018-07-05T03:40:23.299Z,17.09
2018-07-05T03:41:23.288Z,17.09
2018-07-05T03:42:23.278Z,17.15
2018-07-05T03:43:23.268Z,17.10
2018-07-05T03:44:23.256Z,17.10
2018-07-05T03:45:23.247Z,17.14
2018-07-05T03:46:23.236Z,17.15
2018-07-05T03:47:23.226Z,17.21
2018-07-05T03:48:23.215Z,17.21
2018-07-05T03:49:23.305Z,17.18
2018-07-05T03:50:23.195Z,17.21
2018-07-05T03:51:23.184Z,17.14
2018-07-05T03:52:23.213Z,17.18
2018-07-05T03:53:23.162Z,17.17
2018-07-05T03:54:23.152Z,17.10
2018-07-05T03:55:23.147Z,17.05
2018-07-05T03:56:23.131Z,17.02
2018-07-05T03:57:23.121Z,17.12
2018-07-05T03:58:23.110Z,17.09
2018-07-05T03:59:23.101Z,17.03
2018-07-05T04:00:23.096Z,17.09
2018-07-05T04:01:23.179Z,17.07
2018-07-05T04:02:23.068Z,17.12
2018-07-05T04:03:23.058Z,17.18
2018-07-05T04:04:23.095Z,17.02
2018-07-05T04:05:23.037Z,17.07
2018-07-05T04:06:23.028Z,17.07
2018-07-05T04:07:23.018Z,17.02
2018-07-05T04:08:23.020Z,17.03
2018-07-05T04:09:22.995Z,17.02
2018-07-05T04:10:22.984Z,16.98
2018-07-05T04:11:22.974Z,17.00
2018-07-05T04:12:22.963Z,16.90
2018-07-05T04:13:23.052Z,16.91
2018-07-05T04:14:22.941Z,16.85
2018-07-05T04:15:22.931Z,16.88
2018-07-05T04:16:22.920Z,16.91
2018-07-05T04:17:22.910Z,16.87
2018-07-05T04:18:22.899Z,16.87
2018-07-05T04:19:22.891Z,16.78
2018-07-05T04:20:22.879Z,16.88
2018-07-05T04:21:22.868Z,16.85
2018-07-05T04:22:22.857Z,16.81
2018-07-05T04:23:22.848Z,16.78
2018-07-05T04:24:22.835Z,16.90
2018-07-05T04:25:22.824Z,16.90
2018-07-05T04:26:22.814Z,16.82
2018-07-05T04:27:22.804Z,16.84
2018-07-05T04:28:22.792Z,16.92
2018-07-05T04:29:22.783Z,16.84
2018-07-05T04:30:22.771Z,16.84
2018-07-05T04:31:22.762Z,16.80
2018-07-05T04:32:22.750Z,16.73
2018-07-05T04:33:22.739Z,16.85
2018-07-05T04:34:22.729Z,16.78
2018-07-05T04:35:22.719Z,16.91
2018-07-05T04:36:22.707Z,16.85
2018-07-05T04:37:22.699Z,16.88
2018-07-05T04:38:22.687Z,16.90
2018-07-05T04:39:22.676Z,16.81
2018-07-05T04:40:22.666Z,16.84
2018-07-05T04:41:22.656Z,16.77
2018-07-05T04:42:22.645Z,16.87
2018-07-05T04:43:22.634Z,16.80
2018-07-05T04:44:22.622Z,16.90
2018-07-05T04:45:22.612Z,16.80
2018-07-05T04:46:22.601Z,16.90
2018-07-05T04:47:22.591Z,16.84
2018-07-05T04:48:22.579Z,16.90
2018-07-05T04:49:22.669Z,16.85
2018-07-05T04:50:22.559Z,16.80
2018-07-05T04:51:22.547Z,16.87
2018-07-05T04:52:22.538Z,16.88
2018-07-05T04:53:22.531Z,16.90
2018-07-05T04:54:22.519Z,16.84
2018-07-05T04:55:22.552Z,16.75
2018-07-05T04:56:22.494Z,16.78
2018-07-05T04:57:22.483Z,16.77
2018-07-05T04:58:22.472Z,16.81
2018-07-05T04:59:22.462Z,16.78
2018-07-05T05:00:22.450Z,16.65
2018-07-05T05:01:22.444Z,16.69
2018-07-05T05:02:22.442Z,16.65
2018-07-05T05:03:22.421Z,16.67
2018-07-05T05:04:22.408Z,16.65
2018-07-05T05:05:22.398Z,16.67
2018-07-05T05:06:22.387Z,16.63
2018-07-05T05:07:22.476Z,16.75
2018-07-05T05:08:22.366Z,16.66
2018-07-05T05:09:22.354Z,16.69
2018-07-05T05:10:22.344Z,16.66
2018-07-05T05:11:22.333Z,16.66
2018-07-05T05:12:22.325Z,16.67
2018-07-05T05:13:22.311Z,16.65
2018-07-05T05:14:22.300Z,16.67
2018-07-05T05:15:22.290Z,16.67
2018-07-05T05:16:22.278Z,16.66
2018-07-05T05:17:22.269Z,16.67
2018-07-05T05:18:22.259Z,16.67
2018-07-05T05:19:22.347Z,16.60
2018-07-05T05:20:22.236Z,16.54
2018-07-05T05:21:22.226Z,16.42
2018-07-05T05:22:22.214Z,16.59
2018-07-05T05:23:22.204Z,16.52
2018-07-05T05:24:22.192Z,16.57
2018-07-05T05:25:22.184Z,16.48
2018-07-05T05:26:22.170Z,16.51
2018-07-05T05:27:22.160Z,16.52
2018-07-05T05:28:22.152Z,16.52
2018-07-05T05:29:22.138Z,16.55
2018-07-05T05:30:22.127Z,16.47
2018-07-05T05:31:22.217Z,16.50
2018-07-05T05:32:22.105Z,16.65
2018-07-05T05:33:22.097Z,16.47
2018-07-05T05:34:22.083Z,16.54
2018-07-05T05:35:22.073Z,16.65
2018-07-05T05:36:22.061Z,16.54
2018-07-05T05:37:22.051Z,16.55
2018-07-05T05:38:22.041Z,16.50
2018-07-05T05:39:22.029Z,16.44
2018-07-05T05:40:22.018Z,16.51
2018-07-05T05:41:22.007Z,16.51
2018-07-05T05:42:21.999Z,16.48
2018-07-05T05:43:22.086Z,16.47
2018-07-05T05:44:21.975Z,16.44
2018-07-05T05:45:21.964Z,16.42
2018-07-05T05:46:21.953Z,16.42
2018-07-05T05:47:21.943Z,16.41
2018-07-05T05:48:21.930Z,16.44
2018-07-05T05:49:21.920Z,16.41
2018-07-05T05:50:21.910Z,16.51
2018-07-05T05:51:21.899Z,16.47
2018-07-05T05:52:21.887Z,16.47
2018-07-05T05:53:21.876Z,16.48
2018-07-05T05:54:21.866Z,16.45
2018-07-05T05:55:21.856Z,16.41
2018-07-05T05:56:21.843Z,16.37
2018-07-05T05:57:21.832Z,16.42
2018-07-05T05:58:21.821Z,16.34
2018-07-05T05:59:21.812Z,16.34
2018-07-05T06:00:21.799Z,16.26
2018-07-05T06:01:21.889Z,16.34
2018-07-05T06:02:21.779Z,16.41
2018-07-05T06:03:21.769Z,16.48
2018-07-05T06:04:21.756Z,16.47
2018-07-05T06:05:21.744Z,16.45
2018-07-05T06:06:21.733Z,16.44
2018-07-05T06:07:21.823Z,16.36
2018-07-05T06:08:21.718Z,16.40
2018-07-05T06:09:21.700Z,16.42
2018-07-05T06:10:21.690Z,16.44
2018-07-05T06:11:21.679Z,16.42
2018-07-05T06:12:21.667Z,16.48
2018-07-05T06:13:21.757Z,16.44
2018-07-05T06:14:21.645Z,16.44
2018-07-05T06:15:21.673Z,16.42
2018-07-05T06:16:21.624Z,16.40
2018-07-05T06:17:21.612Z,16.44
2018-07-05T06:18:21.602Z,16.45
2018-07-05T06:19:21.697Z,16.47
2018-07-05T06:20:21.579Z,16.50
2018-07-05T06:21:21.613Z,16.44
2018-07-05T06:22:21.558Z,16.45
2018-07-05T06:23:21.547Z,16.40
2018-07-05T06:24:21.535Z,16.45
2018-07-05T06:25:21.533Z,16.37
2018-07-05T06:26:21.517Z,16.32
2018-07-05T06:27:21.504Z,16.33
2018-07-05T06:28:21.492Z,16.37
2018-07-05T06:29:21.482Z,16.41
2018-07-05T06:30:21.471Z,16.34
2018-07-05T06:31:21.560Z,16.36
2018-07-05T06:32:21.448Z,16.30
2018-07-05T06:33:21.437Z,16.30
2018-07-05T06:34:21.427Z,16.27
2018-07-05T06:35:21.416Z,16.22
2018-07-05T06:36:21.405Z,16.13
2018-07-05T06:37:21.393Z,16.17
2018-07-05T06:38:21.385Z,16.14
2018-07-05T06:39:21.371Z,16.16
2018-07-05T06:40:21.361Z,16.22
2018-07-05T06:41:21.352Z,16.14
2018-07-05T06:42:21.338Z,16.14
2018-07-05T06:43:21.427Z,16.14
2018-07-05T06:44:21.327Z,16.16
2018-07-05T06:45:21.307Z,16.03
2018-07-05T06:46:21.294Z,15.98
2018-07-05T06:47:21.307Z,16.04
2018-07-05T06:48:21.272Z,16.01
2018-07-05T06:49:21.390Z,16.17
2018-07-05T06:50:21.250Z,16.17
2018-07-05T06:51:21.241Z,16.07
2018-07-05T06:52:21.227Z,16.14
2018-07-05T06:53:21.216Z,15.99
2018-07-05T06:54:21.206Z,16.01
2018-07-05T06:55:21.194Z,16.13
2018-07-05T06:56:21.184Z,16.13
2018-07-05T06:57:21.171Z,16.11
2018-07-05T06:58:21.159Z,16.13
2018-07-05T06:59:21.150Z,16.16
2018-07-05T07:00:21.137Z,16.13
2018-07-05T07:01:21.226Z,16.08
2018-07-05T07:02:21.118Z,16.06
2018-07-05T07:03:21.106Z,16.07
2018-07-05T07:04:21.092Z,16.16
2018-07-05T07:05:21.082Z,16.11
2018-07-05T07:06:21.071Z,16.16
2018-07-05T07:07:21.060Z,16.04
2018-07-05T07:08:21.047Z,16.18
2018-07-05T07:09:21.038Z,16.11
2018-07-05T07:10:21.026Z,16.18
2018-07-05T07:11:21.016Z,16.18
2018-07-05T07:12:21.002Z,16.26
2018-07-05T07:13:21.092Z,16.17
2018-07-05T07:14:20.983Z,16.08
2018-07-05T07:15:20.970Z,16.18
2018-07-05T07:16:20.958Z,16.10
2018-07-05T07:17:20.948Z,16.08
2018-07-05T07:18:20.936Z,16.16
2018-07-05T07:19:20.925Z,16.14
2018-07-05T07:20:20.915Z,16.07
2018-07-05T07:21:20.903Z,16.10
2018-07-05T07:22:20.892Z,16.06
2018-07-05T07:23:20.881Z,16.08
2018-07-05T07:24:20.868Z,16.07
2018-07-05T07:25:20.959Z,15.99
2018-07-05T07:26:20.848Z,16.08
2018-07-05T07:27:20.836Z,16.01
2018-07-05T07:28:20.824Z,16.07
2018-07-05T07:29:20.815Z,16.11
2018-07-05T07:30:20.804Z,16.13
2018-07-05T07:31:20.817Z,16.25
2018-07-05T07:32:20.779Z,16.16
2018-07-05T07:33:20.768Z,16.16
2018-07-05T07:34:20.758Z,16.11
2018-07-05T07:35:20.754Z,16.10
2018-07-05T07:36:20.735Z,16.03
2018-07-05T07:37:20.736Z,16.07
2018-07-05T07:38:20.716Z,16.11
2018-07-05T07:39:20.703Z,16.08
2018-07-05T07:40:20.690Z,15.99
2018-07-05T07:41:20.679Z,16.01
2018-07-05T07:42:20.668Z,16.04
2018-07-05T07:43:20.657Z,16.11
2018-07-05T07:44:20.646Z,15.96
2018-07-05T07:45:20.653Z,16.01
2018-07-05T07:46:20.625Z,15.86
2018-07-05T07:47:20.612Z,15.88
2018-07-05T07:48:20.600Z,15.89
2018-07-05T07:49:20.689Z,15.89
2018-07-05T07:50:20.579Z,15.85
2018-07-05T07:51:20.633Z,15.88
2018-07-05T07:52:20.554Z,15.93
2018-07-05T07:53:20.544Z,15.85
2018-07-05T07:54:20.532Z,15.88
2018-07-05T07:55:20.522Z,15.91
2018-07-05T07:56:20.509Z,15.89
2018-07-05T07:57:20.498Z,15.89
2018-07-05T07:58:20.564Z,15.88
2018-07-05T07:59:20.476Z,15.85
2018-07-05T08:00:20.463Z,15.85
2018-07-05T08:01:20.453Z,15.84
2018-07-05T08:02:20.441Z,15.77
2018-07-05T08:03:20.430Z,15.91
2018-07-05T08:04:20.420Z,15.85
2018-07-05T08:05:20.408Z,15.85
2018-07-05T08:06:20.396Z,15.80
2018-07-05T08:07:20.384Z,15.88
2018-07-05T08:08:20.373Z,15.89
2018-07-05T08:09:20.361Z,15.88
2018-07-05T08:10:20.351Z,15.92
2018-07-05T08:11:20.339Z,15.93
2018-07-05T08:12:20.329Z,15.84
2018-07-05T08:13:20.315Z,15.85
2018-07-05T08:14:20.304Z,15.88
2018-07-05T08:15:20.294Z,15.85
2018-07-05T08:16:20.281Z,15.70
2018-07-05T08:17:20.270Z,15.68
2018-07-05T08:18:20.258Z,15.70
2018-07-05T08:19:20.349Z,15.71
2018-07-05T08:20:20.237Z,15.70
2018-07-05T08:21:20.224Z,15.64
2018-07-05T08:22:20.212Z,15.71
2018-07-05T08:23:20.201Z,15.78
2018-07-05T08:24:20.189Z,15.84
2018-07-05T08:25:20.278Z,15.80
2018-07-05T08:26:20.167Z,15.74
2018-07-05T08:27:20.156Z,15.85
2018-07-05T08:28:20.144Z,15.86
2018-07-05T08:29:20.132Z,15.85
2018-07-05T08:30:20.121Z,15.88
2018-07-05T08:31:20.123Z,15.86
2018-07-05T08:32:20.098Z,15.86
2018-07-05T08:33:20.086Z,15.89
2018-07-05T08:34:20.075Z,15.86
2018-07-05T08:35:20.065Z,15.91
2018-07-05T08:36:20.052Z,16.03
2018-07-05T08:37:20.041Z,16.04
2018-07-05T08:38:20.034Z,15.93
2018-07-05T08:39:20.020Z,15.95
2018-07-05T08:40:20.008Z,15.89
2018-07-05T08:41:19.995Z,15.80
2018-07-05T08:42:19.985Z,15.89
2018-07-05T08:43:19.974Z,15.80
2018-07-05T08:44:19.961Z,15.80
2018-07-05T08:45:19.951Z,15.84
2018-07-05T08:46:19.941Z,15.77
2018-07-05T08:47:19.928Z,15.78
2018-07-05T08:48:19.916Z,15.71
2018-07-05T08:49:20.006Z,15.71
2018-07-05T08:50:19.895Z,15.67
2018-07-05T08:51:19.882Z,15.70
2018-07-05T08:52:19.869Z,15.66
2018-07-05T08:53:19.859Z,15.81
2018-07-05T08:54:19.847Z,15.77
2018-07-05T08:55:19.937Z,15.88
2018-07-05T08:56:19.824Z,15.86
2018-07-05T08:57:19.813Z,15.91
2018-07-05T08:58:19.878Z,15.88
2018-07-05T08:59:19.791Z,15.98
2018-07-05T09:00:19.778Z,15.98
2018-07-05T09:01:19.769Z,16.04
2018-07-05T09:02:19.756Z,15.91
2018-07-05T09:03:19.745Z,15.91
2018-07-05T09:04:19.734Z,15.84
2018-07-05T09:05:19.726Z,15.85
2018-07-05T09:06:19.711Z,15.92
2018-07-05T09:07:19.700Z,15.88
2018-07-05T09:08:19.687Z,15.74
2018-07-05T09:09:19.676Z,15.84
2018-07-05T09:10:19.665Z,15.84
2018-07-05T09:11:19.655Z,15.77
2018-07-05T09:12:19.642Z,15.85
2018-07-05T09:13:19.731Z,15.89
2018-07-05T09:14:19.620Z,15.86
2018-07-05T09:15:19.608Z,15.89
2018-07-05T09:16:19.597Z,15.98
2018-07-05T09:17:19.618Z,15.99
2018-07-05T09:18:19.577Z,16.08
2018-07-05T09:19:19.569Z,16.11
2018-07-05T09:20:19.552Z,16.07
2018-07-05T09:21:19.543Z,16.23
2018-07-05T09:22:19.530Z,16.14
2018-07-05T09:23:19.575Z,16.14
2018-07-05T09:24:19.507Z,16.11
2018-07-05T09:25:19.498Z,16.14
2018-07-05T09:26:19.485Z,16.16
2018-07-05T09:27:19.475Z,16.26
2018-07-05T09:28:19.462Z,16.17
2018-07-05T09:29:19.452Z,16.29
2018-07-05T09:30:19.441Z,16.17
2018-07-05T09:31:19.551Z,16.29
2018-07-05T09:32:19.424Z,16.14
2018-07-05T09:33:19.407Z,16.18
2018-07-05T09:34:19.397Z,16.13
2018-07-05T09:35:19.386Z,16.14
2018-07-05T09:36:19.374Z,16.16
2018-07-05T09:37:19.490Z,16.10
2018-07-05T09:38:19.352Z,16.17
2018-07-05T09:39:19.341Z,16.26
2018-07-05T09:40:19.329Z,16.41
2018-07-05T09:41:19.319Z,16.37
2018-07-05T09:42:19.307Z,16.45
2018-07-05T09:43:19.397Z,16.32
2018-07-05T09:44:19.285Z,16.41
2018-07-05T09:45:19.275Z,16.42
2018-07-05T09:46:19.264Z,16.45
2018-07-05T09:47:19.254Z,16.44
2018-07-05T09:48:19.241Z,16.51
2018-07-05T09:49:19.343Z,16.45
2018-07-05T09:50:19.219Z,16.44
2018-07-05T09:51:19.208Z,16.52
2018-07-05T09:52:19.226Z,16.54
2018-07-05T09:53:19.188Z,16.55
2018-07-05T09:54:19.176Z,16.54
2018-07-05T09:55:19.265Z,16.52
2018-07-05T09:56:19.154Z,16.57
2018-07-05T09:57:19.145Z,16.51
2018-07-05T09:58:19.131Z,16.63
2018-07-05T09:59:19.121Z,16.57
2018-07-05T10:00:19.110Z,16.63
2018-07-05T10:01:19.199Z,16.63
2018-07-05T10:02:19.089Z,16.67
2018-07-05T10:03:19.079Z,16.78
2018-07-05T10:04:19.066Z,16.72
2018-07-05T10:05:19.056Z,16.67
2018-07-05T10:06:19.045Z,16.77
2018-07-05T10:07:19.134Z,16.75
2018-07-05T10:08:19.023Z,16.78
2018-07-05T10:09:19.013Z,16.88
2018-07-05T10:10:19.002Z,16.80
2018-07-05T10:11:18.991Z,16.91
2018-07-05T10:12:18.979Z,16.90
2018-07-05T10:13:19.071Z,16.88
2018-07-05T10:14:18.959Z,16.87
2018-07-05T10:15:18.948Z,16.99
2018-07-05T10:16:18.939Z,16.99
2018-07-05T10:17:18.927Z,17.05
2018-07-05T10:18:18.917Z,17.03
2018-07-05T10:19:18.943Z,17.09
2018-07-05T10:20:18.895Z,17.10
2018-07-05T10:21:18.884Z,17.07
2018-07-05T10:22:18.873Z,17.06
2018-07-05T10:23:18.863Z,17.10
2018-07-05T10:24:18.853Z,17.20
2018-07-05T10:25:18.942Z,17.12
2018-07-05T10:26:18.831Z,17.12
2018-07-05T10:27:18.821Z,17.18
2018-07-05T10:28:18.810Z,17.18
2018-07-05T10:29:18.799Z,17.24
2018-07-05T10:30:18.792Z,17.20
2018-07-05T10:31:18.778Z,17.20
2018-07-05T10:32:18.767Z,17.22
2018-07-05T10:33:18.757Z,17.18
2018-07-05T10:34:18.747Z,17.25
2018-07-05T10:35:18.739Z,17.18
2018-07-05T10:36:18.726Z,17.28
2018-07-05T10:37:18.715Z,17.25
2018-07-05T10:38:18.705Z,17.36
2018-07-05T10:39:18.695Z,17.36
2018-07-05T10:40:18.687Z,17.36
2018-07-05T10:41:18.675Z,17.40
2018-07-05T10:42:18.663Z,17.36
2018-07-05T10:43:18.653Z,17.33
2018-07-05T10:44:18.647Z,17.36
2018-07-05T10:45:18.632Z,17.36
2018-07-05T10:46:18.623Z,17.21
2018-07-05T10:47:18.613Z,17.30
2018-07-05T10:48:18.600Z,17.24
2018-07-05T10:49:18.590Z,17.28
2018-07-05T10:50:18.580Z,17.22
2018-07-05T10:51:18.570Z,17.32
2018-07-05T10:52:18.559Z,17.24
2018-07-05T10:53:18.548Z,17.32
2018-07-05T10:54:18.539Z,17.20
2018-07-05T10:55:18.545Z,17.20
2018-07-05T10:56:18.531Z,17.17
2018-07-05T10:57:18.507Z,17.15
2018-07-05T10:58:18.496Z,17.20
2018-07-05T10:59:18.486Z,17.25
2018-07-05T11:00:18.474Z,17.28
2018-07-05T11:01:18.466Z,17.33
2018-07-05T11:02:18.454Z,17.24
2018-07-05T11:03:18.443Z,17.42
2018-07-05T11:04:18.433Z,17.36
2018-07-05T11:05:18.422Z,17.36
2018-07-05T11:06:18.412Z,17.42
2018-07-05T11:07:18.404Z,17.38
2018-07-05T11:08:18.391Z,17.43
2018-07-05T11:09:18.381Z,17.46
2018-07-05T11:10:18.370Z,17.47
2018-07-05T11:11:18.416Z,17.54
2018-07-05T11:12:18.349Z,17.54
2018-07-05T11:13:18.344Z,17.43
2018-07-05T11:14:18.330Z,17.40
2018-07-05T11:15:18.322Z,17.38
2018-07-05T11:16:18.308Z,17.43
2018-07-05T11:17:18.299Z,17.49
2018-07-05T11:18:18.288Z,17.49
2018-07-05T11:19:18.278Z,17.54
2018-07-05T11:20:18.268Z,17.63
2018-07-05T11:21:18.257Z,17.62
2018-07-05T11:22:18.247Z,17.65
2018-07-05T11:23:18.237Z,17.66
2018-07-05T11:24:18.226Z,17.63
2018-07-05T11:25:18.219Z,17.71
2018-07-05T11:26:18.206Z,17.79
2018-07-05T11:27:18.197Z,17.74
2018-07-05T11:28:18.185Z,17.70
2018-07-05T11:29:18.177Z,17.83
2018-07-05T11:30:18.216Z,17.81
2018-07-05T11:31:18.170Z,17.80
2018-07-05T11:32:18.145Z,17.84
2018-07-05T11:33:18.137Z,17.74
2018-07-05T11:34:18.125Z,17.79
2018-07-05T11:35:18.115Z,17.83
2018-07-05T11:36:18.121Z,17.95
2018-07-05T11:37:18.195Z,17.89
2018-07-05T11:38:18.085Z,17.87
2018-07-05T11:39:18.075Z,17.92
2018-07-05T11:40:18.065Z,17.89
2018-07-05T11:41:18.055Z,17.83
2018-07-05T11:42:18.053Z,17.95
2018-07-05T11:43:18.036Z,17.95
2018-07-05T11:44:18.030Z,17.96
2018-07-05T11:45:18.015Z,18.07
2018-07-05T11:46:18.006Z,18.11
2018-07-05T11:47:17.996Z,18.16
2018-07-05T11:48:17.986Z,18.17
2018-07-05T11:49:17.977Z,18.20
2018-07-05T11:50:17.970Z,18.28
2018-07-05T11:51:17.956Z,18.34
2018-07-05T11:52:17.999Z,18.36
2018-07-05T11:53:17.937Z,18.28
2018-07-05T11:54:17.927Z,18.29
2018-07-05T11:55:17.917Z,18.38
2018-07-05T11:56:17.909Z,18.47
2018-07-05T11:57:17.898Z,18.38
2018-07-05T11:58:17.889Z,18.39
2018-07-05T11:59:17.879Z,18.44
2018-07-05T12:00:17.869Z,18.47
2018-07-05T12:01:17.860Z,18.59
2018-07-05T12:02:17.852Z,18.60
2018-07-05T12:03:17.845Z,18.69
2018-07-05T12:04:17.831Z,18.79
2018-07-05T12:05:17.827Z,18.87
2018-07-05T12:06:17.812Z,18.76
2018-07-05T12:07:17.804Z,18.86
2018-07-05T12:08:17.797Z,18.89
2018-07-05T12:09:17.784Z,18.97
2018-07-05T12:10:17.776Z,18.96
2018-07-05T12:11:17.772Z,18.93
2018-07-05T12:12:17.757Z,19.02
2018-07-05T12:13:17.848Z,18.97
2018-07-05T12:14:17.740Z,19.01
2018-07-05T12:15:17.731Z,19.01
2018-07-05T12:16:17.724Z,19.06
2018-07-05T12:17:17.715Z,19.13
2018-07-05T12:18:17.726Z,19.20
2018-07-05T12:19:17.696Z,19.27
2018-07-05T12:20:17.685Z,19.34
2018-07-05T12:21:17.676Z,19.30
2018-07-05T12:22:17.673Z,19.24
2018-07-05T12:23:17.661Z,19.28
2018-07-05T12:24:17.700Z,19.34
2018-07-05T12:25:17.646Z,19.47
2018-07-05T12:26:17.634Z,19.46
2018-07-05T12:27:17.624Z,19.45
2018-07-05T12:28:17.615Z,19.52
2018-07-05T12:29:17.651Z,19.62
2018-07-05T12:30:17.601Z,19.75
2018-07-05T12:31:17.592Z,19.86
2018-07-05T12:32:17.580Z,20.05
2018-07-05T12:33:17.574Z,20.10
2018-07-05T12:34:17.565Z,20.27
2018-07-05T12:35:17.557Z,20.38
2018-07-05T12:36:17.548Z,20.46
2018-07-05T12:37:17.540Z,20.54
2018-07-05T12:38:17.604Z,20.69
2018-07-05T12:39:17.547Z,20.73
2018-07-05T12:40:17.532Z,20.90
2018-07-05T12:41:17.507Z,20.98
2018-07-05T12:42:17.500Z,21.12
2018-07-05T12:43:17.592Z,21.15
2018-07-05T12:44:17.483Z,21.21
2018-07-05T12:45:17.476Z,21.19
2018-07-05T12:46:17.468Z,21.31
2018-07-05T12:47:17.463Z,21.30
2018-07-05T12:48:17.453Z,21.28
2018-07-05T12:49:17.445Z,21.30
2018-07-05T12:50:17.439Z,21.31
2018-07-05T12:51:17.435Z,21.22
2018-07-05T12:52:17.422Z,21.36